sensor_id;sensor_type;location;lat;lon;timestamp;temperature;humidity
16289;DHT22;26089;43.538;5.250;2023-03-23T00:01:26;10.00;99.90
16289;DHT22;26089;43.538;5.250;2023-03-23T00:03:57;9.90;99.90
16289;DHT22;26089;43.538;5.250;2023-03-23T00:06:27;10.00;99.90
16289;DHT22;26089;43.538;5.250;2023-03-23T00:08:58;9.90;99.90
16289;DHT22;26089;43.538;5.250;2023-03-23T00:11:29;10.00;99.90
16289;DHT22;26089;43.538;5.250;2023-03-23T00:13:57;10.00;99.90
16289;DHT22;26089;43.538;5.250;2023-03-23T00:16:29;10.00;99.90
16289;DHT22;26089;43.538;5.250;2023-03-23T00:19:00;10.10;99.90
16289;DHT22;26089;43.538;5.250;2023-03-23T00:21:29;10.10;99.90
16289;DHT22;26089;43.538;5.250;2023-03-23T00:24:02;10.10;99.90
16289;DHT22;26089;43.538;5.250;2023-03-23T00:26:29;10.10;99.90
16289;DHT22;26089;43.538;5.250;2023-03-23T00:29:00;10.20;99.90
16289;DHT22;26089;43.538;5.250;2023-03-23T00:31:27;10.20;99.90
16289;DHT22;26089;43.538;5.250;2023-03-23T00:33:59;10.10;99.90
16289;DHT22;26089;43.538;5.250;2023-03-23T00:36:27;10.00;99.90
16289;DHT22;26089;43.538;5.250;2023-03-23T00:38:55;10.10;99.90
16289;DHT22;26089;43.538;5.250;2023-03-23T00:41:25;10.10;99.90
16289;DHT22;26089;43.538;5.250;2023-03-23T00:43:54;10.00;99.90
16289;DHT22;26089;43.538;5.250;2023-03-23T00:46:21;9.90;99.90
16289;DHT22;26089;43.538;5.250;2023-03-23T00:48:48;9.90;99.90
16289;DHT22;26089;43.538;5.250;2023-03-23T00:51:18;9.90;99.90
16289;DHT22;26089;43.538;5.250;2023-03-23T00:53:45;9.90;99.90
16289;DHT22;26089;43.538;5.250;2023-03-23T00:56:13;9.90;99.90
16289;DHT22;26089;43.538;5.250;2023-03-23T00:58:41;9.90;99.90
16289;DHT22;26089;43.538;5.250;2023-03-23T01:01:08;9.90;99.90
16289;DHT22;26089;43.538;5.250;2023-03-23T01:03:36;9.90;99.90
16289;DHT22;26089;43.538;5.250;2023-03-23T01:06:07;10.10;99.90
16289;DHT22;26089;43.538;5.250;2023-03-23T01:08:39;10.00;99.90
16289;DHT22;26089;43.538;5.250;2023-03-23T01:11:12;10.00;99.90
16289;DHT22;26089;43.538;5.250;2023-03-23T01:13:39;10.00;99.90
16289;DHT22;26089;43.538;5.250;2023-03-23T01:16:07;10.00;99.90
16289;DHT22;26089;43.538;5.250;2023-03-23T01:18:35;10.10;99.90
16289;DHT22;26089;43.538;5.250;2023-03-23T01:21:04;10.10;99.90
16289;DHT22;26089;43.538;5.250;2023-03-23T01:23:33;11.10;99.90
16289;DHT22;26089;43.538;5.250;2023-03-23T01:26:04;10.10;99.90
16289;DHT22;26089;43.538;5.250;2023-03-23T01:28:32;10.10;99.90
16289;DHT22;26089;43.538;5.250;2023-03-23T01:31:01;8.70;99.90
16289;DHT22;26089;43.538;5.250;2023-03-23T01:33:28;10.10;99.90
16289;DHT22;26089;43.538;5.250;2023-03-23T01:35:55;10.30;99.90
16289;DHT22;26089;43.538;5.250;2023-03-23T01:38:22;10.10;99.90
16289;DHT22;26089;43.538;5.250;2023-03-23T01:40:49;10.40;99.90
16289;DHT22;26089;43.538;5.250;2023-03-23T01:43:18;10.10;99.90
16289;DHT22;26089;43.538;5.250;2023-03-23T01:45:45;10.10;99.90
16289;DHT22;26089;43.538;5.250;2023-03-23T01:48:17;10.10;99.90
16289;DHT22;26089;43.538;5.250;2023-03-23T01:50:51;10.10;99.90
16289;DHT22;26089;43.538;5.250;2023-03-23T01:53:22;10.10;99.90
16289;DHT22;26089;43.538;5.250;2023-03-23T01:55:51;10.10;99.90
16289;DHT22;26089;43.538;5.250;2023-03-23T01:58:23;10.20;99.90
16289;DHT22;26089;43.538;5.250;2023-03-23T02:00:53;10.20;99.90
16289;DHT22;26089;43.538;5.250;2023-03-23T02:03:21;10.20;99.90
16289;DHT22;26089;43.538;5.250;2023-03-23T02:05:49;10.20;99.90
16289;DHT22;26089;43.538;5.250;2023-03-23T02:08:17;10.20;99.90
16289;DHT22;26089;43.538;5.250;2023-03-23T02:10:44;10.20;99.90
16289;DHT22;26089;43.538;5.250;2023-03-23T02:13:12;10.20;99.90
16289;DHT22;26089;43.538;5.250;2023-03-23T02:15:59;10.30;99.90
16289;DHT22;26089;43.538;5.250;2023-03-23T02:18:40;10.20;99.90
16289;DHT22;26089;43.538;5.250;2023-03-23T02:24:42;10.20;99.90
16289;DHT22;26089;43.538;5.250;2023-03-23T02:27:25;10.20;99.90
16289;DHT22;26089;43.538;5.250;2023-03-23T02:30:26;9.80;99.90
16289;DHT22;26089;43.538;5.250;2023-03-23T02:33:17;10.10;99.90
16289;DHT22;26089;43.538;5.250;2023-03-23T02:35:50;10.20;99.90
16289;DHT22;26089;43.538;5.250;2023-03-23T02:38:22;10.00;99.90
16289;DHT22;26089;43.538;5.250;2023-03-23T02:40:53;10.00;99.90
16289;DHT22;26089;43.538;5.250;2023-03-23T02:43:23;10.00;99.90
16289;DHT22;26089;43.538;5.250;2023-03-23T02:45:52;10.00;99.90
16289;DHT22;26089;43.538;5.250;2023-03-23T02:48:25;10.00;99.90
16289;DHT22;26089;43.538;5.250;2023-03-23T02:50:55;10.00;99.90
16289;DHT22;26089;43.538;5.250;2023-03-23T02:53:24;10.00;99.90
16289;DHT22;26089;43.538;5.250;2023-03-23T02:55:54;10.00;99.90
16289;DHT22;26089;43.538;5.250;2023-03-23T02:58:22;10.00;99.90
16289;DHT22;26089;43.538;5.250;2023-03-23T03:00:49;10.00;99.90
16289;DHT22;26089;43.538;5.250;2023-03-23T03:03:19;10.20;99.90
16289;DHT22;26089;43.538;5.250;2023-03-23T03:05:57;10.10;99.90
16289;DHT22;26089;43.538;5.250;2023-03-23T03:08:31;10.00;99.90
16289;DHT22;26089;43.538;5.250;2023-03-23T03:11:04;10.00;99.90
16289;DHT22;26089;43.538;5.250;2023-03-23T03:13:40;10.30;99.90
16289;DHT22;26089;43.538;5.250;2023-03-23T03:16:16;9.90;99.90
16289;DHT22;26089;43.538;5.250;2023-03-23T03:18:49;10.00;99.90
16289;DHT22;26089;43.538;5.250;2023-03-23T03:21:21;9.60;99.90
16289;DHT22;26089;43.538;5.250;2023-03-23T03:23:52;10.00;99.90
16289;DHT22;26089;43.538;5.250;2023-03-23T03:26:22;10.00;99.90
16289;DHT22;26089;43.538;5.250;2023-03-23T03:28:52;10.20;99.90
16289;DHT22;26089;43.538;5.250;2023-03-23T03:31:21;10.00;99.90
16289;DHT22;26089;43.538;5.250;2023-03-23T03:33:49;10.10;99.90
16289;DHT22;26089;43.538;5.250;2023-03-23T03:36:20;10.10;99.90
16289;DHT22;26089;43.538;5.250;2023-03-23T03:38:50;10.10;99.90
16289;DHT22;26089;43.538;5.250;2023-03-23T03:41:18;10.00;99.90
16289;DHT22;26089;43.538;5.250;2023-03-23T03:43:46;10.10;99.90
16289;DHT22;26089;43.538;5.250;2023-03-23T03:46:13;9.90;99.90
16289;DHT22;26089;43.538;5.250;2023-03-23T03:48:40;10.10;99.90
16289;DHT22;26089;43.538;5.250;2023-03-23T03:51:07;10.00;99.90
16289;DHT22;26089;43.538;5.250;2023-03-23T03:53:35;10.10;99.90
16289;DHT22;26089;43.538;5.250;2023-03-23T03:56:03;10.10;99.90
16289;DHT22;26089;43.538;5.250;2023-03-23T03:58:31;10.00;99.90
16289;DHT22;26089;43.538;5.250;2023-03-23T04:00:59;10.00;99.90
16289;DHT22;26089;43.538;5.250;2023-03-23T04:03:26;10.00;99.90
16289;DHT22;26089;43.538;5.250;2023-03-23T04:05:54;10.10;99.90
16289;DHT22;26089;43.538;5.250;2023-03-23T04:08:22;10.10;99.90
16289;DHT22;26089;43.538;5.250;2023-03-23T04:10:50;10.10;99.90
16289;DHT22;26089;43.538;5.250;2023-03-23T04:13:18;10.10;99.90
16289;DHT22;26089;43.538;5.250;2023-03-23T04:15:46;10.10;99.90
16289;DHT22;26089;43.538;5.250;2023-03-23T04:18:13;10.10;99.90
16289;DHT22;26089;43.538;5.250;2023-03-23T04:20:43;10.10;99.90
16289;DHT22;26089;43.538;5.250;2023-03-23T04:23:10;10.10;99.90
16289;DHT22;26089;43.538;5.250;2023-03-23T04:25:37;10.10;99.90
16289;DHT22;26089;43.538;5.250;2023-03-23T04:28:07;10.10;99.90
16289;DHT22;26089;43.538;5.250;2023-03-23T04:30:36;10.20;99.90
16289;DHT22;26089;43.538;5.250;2023-03-23T04:33:03;10.20;99.90
16289;DHT22;26089;43.538;5.250;2023-03-23T04:35:30;10.20;99.90
16289;DHT22;26089;43.538;5.250;2023-03-23T04:37:57;10.30;99.90
16289;DHT22;26089;43.538;5.250;2023-03-23T04:40:24;10.30;99.90
16289;DHT22;26089;43.538;5.250;2023-03-23T04:42:51;10.30;99.90
16289;DHT22;26089;43.538;5.250;2023-03-23T04:45:24;10.30;99.90
16289;DHT22;26089;43.538;5.250;2023-03-23T04:47:51;10.30;99.90
16289;DHT22;26089;43.538;5.250;2023-03-23T04:50:23;10.30;99.90
16289;DHT22;26089;43.538;5.250;2023-03-23T04:52:52;9.30;99.90
16289;DHT22;26089;43.538;5.250;2023-03-23T04:55:23;10.20;99.90
16289;DHT22;26089;43.538;5.250;2023-03-23T04:57:50;10.20;99.90
16289;DHT22;26089;43.538;5.250;2023-03-23T05:00:19;10.30;99.90
16289;DHT22;26089;43.538;5.250;2023-03-23T05:02:48;10.30;99.90
16289;DHT22;26089;43.538;5.250;2023-03-23T05:05:18;10.20;99.90
16289;DHT22;26089;43.538;5.250;2023-03-23T05:07:45;10.30;99.90
16289;DHT22;26089;43.538;5.250;2023-03-23T05:10:13;10.30;99.90
16289;DHT22;26089;43.538;5.250;2023-03-23T05:12:41;10.20;99.90
16289;DHT22;26089;43.538;5.250;2023-03-23T05:15:10;10.00;99.90
16289;DHT22;26089;43.538;5.250;2023-03-23T05:17:37;10.20;99.90
16289;DHT22;26089;43.538;5.250;2023-03-23T05:20:07;9.90;99.90
16289;DHT22;26089;43.538;5.250;2023-03-23T05:22:37;10.10;99.90
16289;DHT22;26089;43.538;5.250;2023-03-23T05:25:05;10.20;99.90
16289;DHT22;26089;43.538;5.250;2023-03-23T05:27:34;10.20;99.90
16289;DHT22;26089;43.538;5.250;2023-03-23T05:30:02;10.20;99.90
16289;DHT22;26089;43.538;5.250;2023-03-23T05:32:29;10.10;99.90
16289;DHT22;26089;43.538;5.250;2023-03-23T05:34:56;10.10;99.90
16289;DHT22;26089;43.538;5.250;2023-03-23T05:37:26;10.30;99.90
16289;DHT22;26089;43.538;5.250;2023-03-23T05:39:54;10.20;99.90
16289;DHT22;26089;43.538;5.250;2023-03-23T05:42:21;10.10;99.90
16289;DHT22;26089;43.538;5.250;2023-03-23T05:44:49;10.10;99.90
16289;DHT22;26089;43.538;5.250;2023-03-23T05:47:16;10.10;99.90
16289;DHT22;26089;43.538;5.250;2023-03-23T05:49:43;10.20;99.90
16289;DHT22;26089;43.538;5.250;2023-03-23T05:52:10;10.20;99.90
16289;DHT22;26089;43.538;5.250;2023-03-23T05:54:38;10.20;99.90
16289;DHT22;26089;43.538;5.250;2023-03-23T05:57:07;10.20;99.90
16289;DHT22;26089;43.538;5.250;2023-03-23T05:59:34;10.30;99.90
16289;DHT22;26089;43.538;5.250;2023-03-23T06:02:01;10.30;99.90
16289;DHT22;26089;43.538;5.250;2023-03-23T06:04:28;10.30;99.90
16289;DHT22;26089;43.538;5.250;2023-03-23T06:06:55;10.30;99.90
16289;DHT22;26089;43.538;5.250;2023-03-23T06:09:22;10.30;99.90
16289;DHT22;26089;43.538;5.250;2023-03-23T06:11:52;10.30;99.90
16289;DHT22;26089;43.538;5.250;2023-03-23T06:14:19;10.30;99.90
16289;DHT22;26089;43.538;5.250;2023-03-23T06:16:46;10.40;99.90
16289;DHT22;26089;43.538;5.250;2023-03-23T06:19:14;10.40;99.90
16289;DHT22;26089;43.538;5.250;2023-03-23T06:21:41;10.50;99.90
16289;DHT22;26089;43.538;5.250;2023-03-23T06:24:09;10.50;99.90
16289;DHT22;26089;43.538;5.250;2023-03-23T06:26:38;10.50;99.90
16289;DHT22;26089;43.538;5.250;2023-03-23T06:29:08;10.60;99.90
16289;DHT22;26089;43.538;5.250;2023-03-23T06:31:38;10.60;99.90
16289;DHT22;26089;43.538;5.250;2023-03-23T06:34:06;10.70;99.90
16289;DHT22;26089;43.538;5.250;2023-03-23T06:36:34;10.70;99.90
16289;DHT22;26089;43.538;5.250;2023-03-23T06:39:01;10.30;99.90
16289;DHT22;26089;43.538;5.250;2023-03-23T06:41:30;10.80;99.90
16289;DHT22;26089;43.538;5.250;2023-03-23T06:43:57;11.10;99.90
16289;DHT22;26089;43.538;5.250;2023-03-23T06:46:25;10.80;99.90
16289;DHT22;26089;43.538;5.250;2023-03-23T06:48:52;10.90;99.90
16289;DHT22;26089;43.538;5.250;2023-03-23T06:51:20;11.60;99.90
16289;DHT22;26089;43.538;5.250;2023-03-23T06:53:47;10.90;99.90
16289;DHT22;26089;43.538;5.250;2023-03-23T06:56:14;10.90;99.90
16289;DHT22;26089;43.538;5.250;2023-03-23T06:58:41;11.00;99.90
16289;DHT22;26089;43.538;5.250;2023-03-23T07:01:08;11.00;99.90
16289;DHT22;26089;43.538;5.250;2023-03-23T07:03:37;11.10;99.90
16289;DHT22;26089;43.538;5.250;2023-03-23T07:06:05;11.20;99.90
16289;DHT22;26089;43.538;5.250;2023-03-23T07:08:32;11.30;99.90
16289;DHT22;26089;43.538;5.250;2023-03-23T07:10:59;11.30;99.90
16289;DHT22;26089;43.538;5.250;2023-03-23T07:13:26;11.40;99.90
16289;DHT22;26089;43.538;5.250;2023-03-23T07:15:53;11.50;99.90
16289;DHT22;26089;43.538;5.250;2023-03-23T07:18:21;11.60;99.90
16289;DHT22;26089;43.538;5.250;2023-03-23T07:20:50;11.80;99.90
16289;DHT22;26089;43.538;5.250;2023-03-23T07:23:18;11.80;99.90
16289;DHT22;26089;43.538;5.250;2023-03-23T07:25:45;12.00;99.90
16289;DHT22;26089;43.538;5.250;2023-03-23T07:28:14;12.10;99.90
16289;DHT22;26089;43.538;5.250;2023-03-23T07:30:41;12.50;99.90
16289;DHT22;26089;43.538;5.250;2023-03-23T07:33:09;12.40;99.90
16289;DHT22;26089;43.538;5.250;2023-03-23T07:35:36;12.60;99.90
16289;DHT22;26089;43.538;5.250;2023-03-23T07:38:06;12.80;99.90
16289;DHT22;26089;43.538;5.250;2023-03-23T07:40:34;13.20;99.90
16289;DHT22;26089;43.538;5.250;2023-03-23T07:43:02;14.60;99.90
16289;DHT22;26089;43.538;5.250;2023-03-23T07:45:30;16.40;99.90
16289;DHT22;26089;43.538;5.250;2023-03-23T07:47:57;17.90;99.90
16289;DHT22;26089;43.538;5.250;2023-03-23T07:50:25;19.30;99.90
16289;DHT22;26089;43.538;5.250;2023-03-23T07:52:54;20.30;99.90
16289;DHT22;26089;43.538;5.250;2023-03-23T07:55:22;20.00;99.90
16289;DHT22;26089;43.538;5.250;2023-03-23T07:57:51;19.30;99.90
16289;DHT22;26089;43.538;5.250;2023-03-23T08:00:20;18.50;99.90
16289;DHT22;26089;43.538;5.250;2023-03-23T08:02:51;17.90;99.90
16289;DHT22;26089;43.538;5.250;2023-03-23T08:05:19;17.30;99.90
16289;DHT22;26089;43.538;5.250;2023-03-23T08:07:47;16.80;99.90
16289;DHT22;26089;43.538;5.250;2023-03-23T08:10:15;16.50;99.90
16289;DHT22;26089;43.538;5.250;2023-03-23T08:12:45;16.40;99.90
16289;DHT22;26089;43.538;5.250;2023-03-23T08:15:13;16.40;99.90
16289;DHT22;26089;43.538;5.250;2023-03-23T08:17:41;16.50;99.90
16289;DHT22;26089;43.538;5.250;2023-03-23T08:20:10;17.00;99.90
16289;DHT22;26089;43.538;5.250;2023-03-23T08:22:39;17.50;99.90
16289;DHT22;26089;43.538;5.250;2023-03-23T08:25:09;18.50;99.90
16289;DHT22;26089;43.538;5.250;2023-03-23T08:27:37;19.50;99.90
16289;DHT22;26089;43.538;5.250;2023-03-23T08:30:12;20.50;99.90
16289;DHT22;26089;43.538;5.250;2023-03-23T08:32:39;21.30;99.90
16289;DHT22;26089;43.538;5.250;2023-03-23T08:35:08;21.80;99.90
16289;DHT22;26089;43.538;5.250;2023-03-23T08:37:36;21.20;99.90
16289;DHT22;26089;43.538;5.250;2023-03-23T08:40:05;20.70;99.90
16289;DHT22;26089;43.538;5.250;2023-03-23T08:42:35;21.20;99.90
16289;DHT22;26089;43.538;5.250;2023-03-23T08:45:03;21.60;99.90
16289;DHT22;26089;43.538;5.250;2023-03-23T08:47:32;21.90;99.90
16289;DHT22;26089;43.538;5.250;2023-03-23T08:49:59;22.20;99.90
16289;DHT22;26089;43.538;5.250;2023-03-23T08:52:26;22.00;99.90
16289;DHT22;26089;43.538;5.250;2023-03-23T08:54:54;22.00;99.90
16289;DHT22;26089;43.538;5.250;2023-03-23T08:57:22;21.60;99.90
16289;DHT22;26089;43.538;5.250;2023-03-23T08:59:50;20.60;99.90
16289;DHT22;26089;43.538;5.250;2023-03-23T09:02:19;19.80;99.90
16289;DHT22;26089;43.538;5.250;2023-03-23T09:04:50;19.40;99.90
16289;DHT22;26089;43.538;5.250;2023-03-23T09:07:18;18.80;99.90
16289;DHT22;26089;43.538;5.250;2023-03-23T09:09:45;18.50;99.90
16289;DHT22;26089;43.538;5.250;2023-03-23T09:12:12;18.10;99.90
16289;DHT22;26089;43.538;5.250;2023-03-23T09:14:39;17.70;99.90
16289;DHT22;26089;43.538;5.250;2023-03-23T09:17:07;17.40;99.90
16289;DHT22;26089;43.538;5.250;2023-03-23T09:19:34;17.10;99.90
16289;DHT22;26089;43.538;5.250;2023-03-23T09:22:03;16.90;99.90
16289;DHT22;26089;43.538;5.250;2023-03-23T09:24:30;16.70;99.90
16289;DHT22;26089;43.538;5.250;2023-03-23T09:26:57;16.70;99.90
16289;DHT22;26089;43.538;5.250;2023-03-23T09:29:25;16.60;99.90
16289;DHT22;26089;43.538;5.250;2023-03-23T09:31:53;16.70;99.90
16289;DHT22;26089;43.538;5.250;2023-03-23T09:34:21;16.70;99.90
16289;DHT22;26089;43.538;5.250;2023-03-23T09:36:48;16.50;99.90
16289;DHT22;26089;43.538;5.250;2023-03-23T09:39:18;16.40;99.90
16289;DHT22;26089;43.538;5.250;2023-03-23T09:42:01;16.50;99.90
16289;DHT22;26089;43.538;5.250;2023-03-23T09:44:39;16.90;99.90
16289;DHT22;26089;43.538;5.250;2023-03-23T09:47:13;17.10;99.90
16289;DHT22;26089;43.538;5.250;2023-03-23T09:49:48;17.70;99.90
16289;DHT22;26089;43.538;5.250;2023-03-23T09:52:18;17.50;99.90
16289;DHT22;26089;43.538;5.250;2023-03-23T09:54:48;17.30;99.90
16289;DHT22;26089;43.538;5.250;2023-03-23T09:57:19;17.30;99.90
16289;DHT22;26089;43.538;5.250;2023-03-23T09:59:52;17.60;99.90
16289;DHT22;26089;43.538;5.250;2023-03-23T10:02:26;17.50;99.90
16289;DHT22;26089;43.538;5.250;2023-03-23T10:04:56;17.30;99.90
16289;DHT22;26089;43.538;5.250;2023-03-23T10:07:27;17.10;99.90
16289;DHT22;26089;43.538;5.250;2023-03-23T10:09:57;16.90;99.90
16289;DHT22;26089;43.538;5.250;2023-03-23T10:12:31;16.80;99.90
16289;DHT22;26089;43.538;5.250;2023-03-23T10:15:20;16.90;99.90
16289;DHT22;26089;43.538;5.250;2023-03-23T10:17:52;16.90;99.90
16289;DHT22;26089;43.538;5.250;2023-03-23T10:20:31;16.90;99.90
16289;DHT22;26089;43.538;5.250;2023-03-23T10:23:05;16.90;99.90
16289;DHT22;26089;43.538;5.250;2023-03-23T10:25:39;17.10;99.90
16289;DHT22;26089;43.538;5.250;2023-03-23T10:28:11;17.20;99.90
16289;DHT22;26089;43.538;5.250;2023-03-23T10:30:41;16.90;99.90
16289;DHT22;26089;43.538;5.250;2023-03-23T10:33:13;17.00;99.90
16289;DHT22;26089;43.538;5.250;2023-03-23T10:35:47;17.10;99.90
16289;DHT22;26089;43.538;5.250;2023-03-23T10:38:19;17.30;99.90
16289;DHT22;26089;43.538;5.250;2023-03-23T10:40:52;17.40;99.90
16289;DHT22;26089;43.538;5.250;2023-03-23T10:43:21;17.60;99.90
16289;DHT22;26089;43.538;5.250;2023-03-23T10:45:54;17.70;99.90
16289;DHT22;26089;43.538;5.250;2023-03-23T10:48:27;18.50;99.90
16289;DHT22;26089;43.538;5.250;2023-03-23T10:50:58;18.70;99.90
16289;DHT22;26089;43.538;5.250;2023-03-23T10:53:31;19.00;99.90
16289;DHT22;26089;43.538;5.250;2023-03-23T10:56:01;19.60;99.90
16289;DHT22;26089;43.538;5.250;2023-03-23T10:58:29;20.20;99.90
16289;DHT22;26089;43.538;5.250;2023-03-23T11:00:58;20.80;99.90
16289;DHT22;26089;43.538;5.250;2023-03-23T11:03:41;20.50;99.90
16289;DHT22;26089;43.538;5.250;2023-03-23T11:06:10;20.30;99.90
16289;DHT22;26089;43.538;5.250;2023-03-23T11:08:47;19.80;99.90
16289;DHT22;26089;43.538;5.250;2023-03-23T11:11:18;19.50;99.90
16289;DHT22;26089;43.538;5.250;2023-03-23T11:13:49;19.10;99.90
16289;DHT22;26089;43.538;5.250;2023-03-23T11:16:24;19.30;99.90
16289;DHT22;26089;43.538;5.250;2023-03-23T11:18:52;19.30;99.90
16289;DHT22;26089;43.538;5.250;2023-03-23T11:21:20;19.30;99.90
16289;DHT22;26089;43.538;5.250;2023-03-23T11:23:50;19.30;99.90
16289;DHT22;26089;43.538;5.250;2023-03-23T11:26:21;19.10;99.90
16289;DHT22;26089;43.538;5.250;2023-03-23T11:28:55;19.20;99.90
16289;DHT22;26089;43.538;5.250;2023-03-23T11:31:23;19.80;99.90
16289;DHT22;26089;43.538;5.250;2023-03-23T11:33:54;19.90;99.90
16289;DHT22;26089;43.538;5.250;2023-03-23T11:36:30;20.30;99.90
16289;DHT22;26089;43.538;5.250;2023-03-23T11:38:57;20.40;99.90
16289;DHT22;26089;43.538;5.250;2023-03-23T11:41:31;20.10;99.90
16289;DHT22;26089;43.538;5.250;2023-03-23T11:44:03;20.60;99.90
16289;DHT22;26089;43.538;5.250;2023-03-23T11:46:41;20.20;99.90
16289;DHT22;26089;43.538;5.250;2023-03-23T11:49:13;19.80;99.90
16289;DHT22;26089;43.538;5.250;2023-03-23T11:51:46;20.30;99.90
16289;DHT22;26089;43.538;5.250;2023-03-23T11:54:16;20.10;99.90
16289;DHT22;26089;43.538;5.250;2023-03-23T11:56:46;20.00;99.90
16289;DHT22;26089;43.538;5.250;2023-03-23T11:59:15;20.50;99.90
16289;DHT22;26089;43.538;5.250;2023-03-23T12:01:47;20.20;99.90
16289;DHT22;26089;43.538;5.250;2023-03-23T12:04:49;20.50;99.90
16289;DHT22;26089;43.538;5.250;2023-03-23T12:07:31;20.40;99.90
16289;DHT22;26089;43.538;5.250;2023-03-23T12:10:10;20.10;99.90
16289;DHT22;26089;43.538;5.250;2023-03-23T12:12:46;20.10;99.90
16289;DHT22;26089;43.538;5.250;2023-03-23T12:15:21;20.10;99.90
16289;DHT22;26089;43.538;5.250;2023-03-23T12:17:57;19.90;99.90
16289;DHT22;26089;43.538;5.250;2023-03-23T12:20:31;20.40;99.90
16289;DHT22;26089;43.538;5.250;2023-03-23T12:23:08;21.30;99.90
16289;DHT22;26089;43.538;5.250;2023-03-23T12:28:42;21.30;99.90
16289;DHT22;26089;43.538;5.250;2023-03-23T12:31:15;21.90;99.90
16289;DHT22;26089;43.538;5.250;2023-03-23T12:33:51;21.90;99.90
16289;DHT22;26089;43.538;5.250;2023-03-23T12:36:31;22.40;99.90
16289;DHT22;26089;43.538;5.250;2023-03-23T12:39:30;22.00;99.90
16289;DHT22;26089;43.538;5.250;2023-03-23T12:42:04;21.30;99.90
16289;DHT22;26089;43.538;5.250;2023-03-23T12:44:39;20.50;99.90
16289;DHT22;26089;43.538;5.250;2023-03-23T12:47:15;20.10;99.90
16289;DHT22;26089;43.538;5.250;2023-03-23T12:49:48;19.90;99.90
16289;DHT22;26089;43.538;5.250;2023-03-23T12:52:19;19.70;99.90
16289;DHT22;26089;43.538;5.250;2023-03-23T12:54:52;19.50;99.90
16289;DHT22;26089;43.538;5.250;2023-03-23T12:57:24;19.90;99.90
16289;DHT22;26089;43.538;5.250;2023-03-23T13:00:02;20.40;99.90
16289;DHT22;26089;43.538;5.250;2023-03-23T13:02:39;20.50;99.90
16289;DHT22;26089;43.538;5.250;2023-03-23T13:05:11;20.00;99.90
16289;DHT22;26089;43.538;5.250;2023-03-23T13:07:43;19.20;99.90
16289;DHT22;26089;43.538;5.250;2023-03-23T13:10:17;19.20;99.90
16289;DHT22;26089;43.538;5.250;2023-03-23T13:12:47;19.30;99.90
16289;DHT22;26089;43.538;5.250;2023-03-23T13:15:27;19.70;99.90
16289;DHT22;26089;43.538;5.250;2023-03-23T13:18:03;20.90;99.90
16289;DHT22;26089;43.538;5.250;2023-03-23T13:20:40;21.50;99.90
16289;DHT22;26089;43.538;5.250;2023-03-23T13:23:12;21.90;99.90
16289;DHT22;26089;43.538;5.250;2023-03-23T13:25:54;22.30;99.90
16289;DHT22;26089;43.538;5.250;2023-03-23T13:28:24;22.40;99.90
16289;DHT22;26089;43.538;5.250;2023-03-23T13:30:57;21.80;99.90
16289;DHT22;26089;43.538;5.250;2023-03-23T13:33:24;22.10;99.90
16289;DHT22;26089;43.538;5.250;2023-03-23T13:35:51;21.80;99.90
16289;DHT22;26089;43.538;5.250;2023-03-23T13:38:23;21.40;99.90
16289;DHT22;26089;43.538;5.250;2023-03-23T13:40:51;21.00;99.90
16289;DHT22;26089;43.538;5.250;2023-03-23T13:43:26;20.30;99.90
16289;DHT22;26089;43.538;5.250;2023-03-23T13:45:54;20.80;99.90
16289;DHT22;26089;43.538;5.250;2023-03-23T13:48:24;21.20;99.90
16289;DHT22;26089;43.538;5.250;2023-03-23T13:50:54;20.70;99.90
16289;DHT22;26089;43.538;5.250;2023-03-23T13:53:25;20.40;99.90
16289;DHT22;26089;43.538;5.250;2023-03-23T13:56:06;20.00;99.90
16289;DHT22;26089;43.538;5.250;2023-03-23T13:58:44;20.00;99.90
16289;DHT22;26089;43.538;5.250;2023-03-23T14:01:15;20.60;99.90
16289;DHT22;26089;43.538;5.250;2023-03-23T14:03:47;20.60;99.90
16289;DHT22;26089;43.538;5.250;2023-03-23T14:06:18;21.10;99.90
16289;DHT22;26089;43.538;5.250;2023-03-23T14:08:49;20.70;99.90
16289;DHT22;26089;43.538;5.250;2023-03-23T14:11:20;20.70;99.90
16289;DHT22;26089;43.538;5.250;2023-03-23T14:14:02;21.00;99.90
16289;DHT22;26089;43.538;5.250;2023-03-23T14:16:38;20.90;99.90
16289;DHT22;26089;43.538;5.250;2023-03-23T14:19:17;20.10;99.90
16289;DHT22;26089;43.538;5.250;2023-03-23T14:21:50;19.90;99.90
16289;DHT22;26089;43.538;5.250;2023-03-23T14:24:21;19.90;99.90
16289;DHT22;26089;43.538;5.250;2023-03-23T14:26:50;20.40;99.90
16289;DHT22;26089;43.538;5.250;2023-03-23T14:29:19;20.00;99.90
16289;DHT22;26089;43.538;5.250;2023-03-23T14:31:52;19.40;99.90
16289;DHT22;26089;43.538;5.250;2023-03-23T14:34:23;19.00;99.90
16289;DHT22;26089;43.538;5.250;2023-03-23T14:36:52;19.00;99.90
16289;DHT22;26089;43.538;5.250;2023-03-23T14:39:22;19.40;99.90
16289;DHT22;26089;43.538;5.250;2023-03-23T14:41:52;19.90;99.90
16289;DHT22;26089;43.538;5.250;2023-03-23T14:44:24;20.60;99.90
16289;DHT22;26089;43.538;5.250;2023-03-23T14:46:52;20.80;99.90
16289;DHT22;26089;43.538;5.250;2023-03-23T14:49:27;20.50;99.90
16289;DHT22;26089;43.538;5.250;2023-03-23T14:51:55;20.70;99.90
16289;DHT22;26089;43.538;5.250;2023-03-23T14:54:24;20.60;99.90
16289;DHT22;26089;43.538;5.250;2023-03-23T14:56:52;20.20;99.90
16289;DHT22;26089;43.538;5.250;2023-03-23T14:59:19;20.00;99.90
16289;DHT22;26089;43.538;5.250;2023-03-23T15:01:47;20.20;99.90
16289;DHT22;26089;43.538;5.250;2023-03-23T15:04:17;20.30;99.90
16289;DHT22;26089;43.538;5.250;2023-03-23T15:06:49;20.70;99.90
16289;DHT22;26089;43.538;5.250;2023-03-23T15:09:20;20.70;99.90
16289;DHT22;26089;43.538;5.250;2023-03-23T15:11:54;20.70;99.90
16289;DHT22;26089;43.538;5.250;2023-03-23T15:14:24;20.50;99.90
16289;DHT22;26089;43.538;5.250;2023-03-23T15:16:53;20.20;99.90
16289;DHT22;26089;43.538;5.250;2023-03-23T15:19:24;20.40;99.90
16289;DHT22;26089;43.538;5.250;2023-03-23T15:21:54;20.20;99.90
16289;DHT22;26089;43.538;5.250;2023-03-23T15:24:27;20.00;99.90
16289;DHT22;26089;43.538;5.250;2023-03-23T15:27:07;20.10;99.90
16289;DHT22;26089;43.538;5.250;2023-03-23T15:29:46;20.30;99.90
16289;DHT22;26089;43.538;5.250;2023-03-23T15:32:20;20.30;99.90
16289;DHT22;26089;43.538;5.250;2023-03-23T15:34:47;20.20;99.90
16289;DHT22;26089;43.538;5.250;2023-03-23T15:37:20;20.10;99.90
16289;DHT22;26089;43.538;5.250;2023-03-23T15:39:49;19.70;99.90
16289;DHT22;26089;43.538;5.250;2023-03-23T15:42:25;19.50;99.90
16289;DHT22;26089;43.538;5.250;2023-03-23T15:45:12;19.30;99.90
16289;DHT22;26089;43.538;5.250;2023-03-23T15:47:45;19.10;99.90
16289;DHT22;26089;43.538;5.250;2023-03-23T15:50:15;19.10;99.90
16289;DHT22;26089;43.538;5.250;2023-03-23T15:52:45;19.30;99.90
16289;DHT22;26089;43.538;5.250;2023-03-23T15:55:21;19.40;99.90
16289;DHT22;26089;43.538;5.250;2023-03-23T15:57:48;19.50;99.90
16289;DHT22;26089;43.538;5.250;2023-03-23T16:00:17;19.40;99.90